sensor_id;sensor_type;location;lat;lon;timestamp;pressure;altitude;pressure_sealevel;temperature;humidity
9774;BME280;4926;42.670;23.316;2023-09-30T00:01:53;94965.22;;;18.64;63.16
9774;BME280;4926;42.670;23.316;2023-09-30T00:04:20;94946.06;;;18.57;63.21
9774;BME280;4926;42.670;23.316;2023-09-30T00:06:58;94965.03;;;18.69;63.32
9774;BME280;4926;42.670;23.316;2023-09-30T00:09:29;94965.03;;;18.69;63.27
9774;BME280;4926;42.670;23.316;2023-09-30T00:11:58;94967.00;;;18.81;63.00
9774;BME280;4926;42.670;23.316;2023-09-30T00:14:25;94964.25;;;18.89;62.39
9774;BME280;4926;42.670;23.316;2023-09-30T00:16:54;94956.34;;;18.84;62.61
9774;BME280;4926;42.670;23.316;2023-09-30T00:19:21;94962.22;;;18.86;63.53
9774;BME280;4926;42.670;23.316;2023-09-30T00:21:48;94962.94;;;18.75;63.78
9774;BME280;4926;42.670;23.316;2023-09-30T00:24:15;94959.84;;;18.64;62.78
9774;BME280;4926;42.670;23.316;2023-09-30T00:26:42;94961.66;;;18.52;63.29
9774;BME280;4926;42.670;23.316;2023-09-30T00:29:10;94953.09;;;18.50;62.46
9774;BME280;4926;42.670;23.316;2023-09-30T00:31:37;94951.38;;;18.45;61.89
9774;BME280;4926;42.670;23.316;2023-09-30T00:34:05;94952.03;;;18.42;62.44
9774;BME280;4926;42.670;23.316;2023-09-30T00:36:34;94951.38;;;18.45;62.02
9774;BME280;4926;42.670;23.316;2023-09-30T00:39:01;94952.94;;;18.46;62.16
9774;BME280;4926;42.670;23.316;2023-09-30T00:41:32;94945.28;;;18.57;61.28
9774;BME280;4926;42.670;23.316;2023-09-30T00:44:01;94952.06;;;18.63;61.38
9774;BME280;4926;42.670;23.316;2023-09-30T00:46:31;94953.91;;;18.71;61.45
9774;BME280;4926;42.670;23.316;2023-09-30T00:48:59;94948.13;;;18.81;61.09
9774;BME280;4926;42.670;23.316;2023-09-30T00:51:26;94946.69;;;18.83;61.38
9774;BME280;4926;42.670;23.316;2023-09-30T00:53:55;94951.88;;;18.88;61.53
9774;BME280;4926;42.670;23.316;2023-09-30T00:56:27;94954.84;;;18.96;61.61
9774;BME280;4926;42.670;23.316;2023-09-30T00:58:55;94943.84;;;19.01;61.48
9774;BME280;4926;42.670;23.316;2023-09-30T01:01:22;94952.91;;;18.75;63.88
9774;BME280;4926;42.670;23.316;2023-09-30T01:03:51;94948.13;;;18.60;64.29
9774;BME280;4926;42.670;23.316;2023-09-30T01:06:18;94941.03;;;18.76;62.92
9774;BME280;4926;42.670;23.316;2023-09-30T01:08:44;94945.03;;;18.70;62.69
9774;BME280;4926;42.670;23.316;2023-09-30T01:11:13;94948.78;;;18.78;61.99
9774;BME280;4926;42.670;23.316;2023-09-30T01:13:41;94941.84;;;18.68;61.91
9774;BME280;4926;42.670;23.316;2023-09-30T01:16:09;94943.66;;;18.64;61.05
9774;BME280;4926;42.670;23.316;2023-09-30T01:18:37;94936.94;;;18.70;61.16
9774;BME280;4926;42.670;23.316;2023-09-30T01:21:06;94938.66;;;18.75;60.66
9774;BME280;4926;42.670;23.316;2023-09-30T01:23:35;94938.00;;;18.57;59.95
9774;BME280;4926;42.670;23.316;2023-09-30T01:26:09;94936.53;;;18.60;59.92
9774;BME280;4926;42.670;23.316;2023-09-30T01:28:38;94940.22;;;18.55;59.41
9774;BME280;4926;42.670;23.316;2023-09-30T01:31:05;94940.53;;;18.54;59.25
9774;BME280;4926;42.670;23.316;2023-09-30T01:33:36;94924.03;;;18.55;59.18
9774;BME280;4926;42.670;23.316;2023-09-30T01:36:05;94939.63;;;18.70;59.23
9774;BME280;4926;42.670;23.316;2023-09-30T01:38:32;94936.94;;;18.70;58.76
9774;BME280;4926;42.670;23.316;2023-09-30T01:41:01;94935.84;;;18.71;59.21
9774;BME280;4926;42.670;23.316;2023-09-30T01:43:27;94941.50;;;18.78;60.56
9774;BME280;4926;42.670;23.316;2023-09-30T01:45:55;94941.03;;;18.76;61.95
9774;BME280;4926;42.670;23.316;2023-09-30T01:48:23;94948.00;;;18.77;62.58
9774;BME280;4926;42.670;23.316;2023-09-30T01:50:51;94944.31;;;18.82;63.13
9774;BME280;4926;42.670;23.316;2023-09-30T01:53:18;94946.28;;;18.93;63.51
9774;BME280;4926;42.670;23.316;2023-09-30T01:55:47;94944.31;;;19.03;63.98
9774;BME280;4926;42.670;23.316;2023-09-30T01:58:15;94939.84;;;19.07;63.83
9774;BME280;4926;42.670;23.316;2023-09-30T02:00:43;94945.34;;;18.89;64.87
9774;BME280;4926;42.670;23.316;2023-09-30T02:03:10;94941.28;;;18.83;64.69
9774;BME280;4926;42.670;23.316;2023-09-30T02:05:41;94942.22;;;18.87;64.13
9774;BME280;4926;42.670;23.316;2023-09-30T02:08:08;94941.28;;;18.83;64.64
9774;BME280;4926;42.670;23.316;2023-09-30T02:10:35;94939.75;;;18.53;66.28
9774;BME280;4926;42.670;23.316;2023-09-30T02:13:02;94941.78;;;18.56;66.56
9774;BME280;4926;42.670;23.316;2023-09-30T02:15:32;94940.97;;;18.64;66.45
9774;BME280;4926;42.670;23.316;2023-09-30T02:18:01;94932.19;;;18.67;66.48
9774;BME280;4926;42.670;23.316;2023-09-30T02:20:29;94949.41;;;18.54;67.25
9774;BME280;4926;42.670;23.316;2023-09-30T02:22:59;94938.63;;;18.54;67.66
9774;BME280;4926;42.670;23.316;2023-09-30T02:25:27;94947.69;;;18.50;67.21
9774;BME280;4926;42.670;23.316;2023-09-30T02:27:58;94956.47;;;18.38;68.29
9774;BME280;4926;42.670;23.316;2023-09-30T02:30:25;94946.00;;;18.45;68.25
9774;BME280;4926;42.670;23.316;2023-09-30T02:32:54;94950.06;;;18.51;67.55
9774;BME280;4926;42.670;23.316;2023-09-30T02:35:22;94942.44;;;18.53;67.42
9774;BME280;4926;42.670;23.316;2023-09-30T02:37:51;94942.16;;;18.46;68.15
9774;BME280;4926;42.670;23.316;2023-09-30T02:40:18;94948.88;;;18.40;69.11
9774;BME280;4926;42.670;23.316;2023-09-30T02:42:46;94953.97;;;18.33;69.37
9774;BME280;4926;42.670;23.316;2023-09-30T02:45:15;94952.09;;;18.25;69.50
9774;BME280;4926;42.670;23.316;2023-09-30T02:47:43;94950.53;;;18.24;69.91
9774;BME280;4926;42.670;23.316;2023-09-30T02:50:11;94952.88;;;18.26;70.29
9774;BME280;4926;42.670;23.316;2023-09-30T02:52:38;94955.84;;;18.33;70.07
9774;BME280;4926;42.670;23.316;2023-09-30T02:55:09;94960.13;;;18.34;70.00
9774;BME280;4926;42.670;23.316;2023-09-30T02:57:36;94949.53;;;18.29;69.95
9774;BME280;4926;42.670;23.316;2023-09-30T03:00:04;94944.66;;;18.22;70.52
9774;BME280;4926;42.670;23.316;2023-09-30T03:02:39;94951.81;;;18.18;70.87
9774;BME280;4926;42.670;23.316;2023-09-30T03:05:07;94955.34;;;18.10;71.31
9774;BME280;4926;42.670;23.316;2023-09-30T03:07:36;94954.25;;;18.03;71.77
9774;BME280;4926;42.670;23.316;2023-09-30T03:10:04;94950.31;;;18.00;72.07
9774;BME280;4926;42.670;23.316;2023-09-30T03:12:34;94953.81;;;17.92;72.46
9774;BME280;4926;42.670;23.316;2023-09-30T03:15:00;94953.00;;;17.92;72.36
9774;BME280;4926;42.670;23.316;2023-09-30T03:17:30;94950.81;;;17.85;72.46
9774;BME280;4926;42.670;23.316;2023-09-30T03:20:00;94942.41;;;17.87;72.44
9774;BME280;4926;42.670;23.316;2023-09-30T03:22:37;94952.88;;;17.88;72.24
9774;BME280;4926;42.670;23.316;2023-09-30T03:25:04;94943.53;;;17.86;71.55
9774;BME280;4926;42.670;23.316;2023-09-30T03:27:33;94954.31;;;17.86;71.36
9774;BME280;4926;42.670;23.316;2023-09-30T03:29:59;94954.31;;;17.86;71.23
9774;BME280;4926;42.670;23.316;2023-09-30T03:32:31;94952.72;;;17.84;71.12
9774;BME280;4926;42.670;23.316;2023-09-30T03:34:58;94955.75;;;17.83;71.13
9774;BME280;4926;42.670;23.316;2023-09-30T03:37:26;94954.00;;;17.87;71.02
9774;BME280;4926;42.670;23.316;2023-09-30T03:39:56;94954.66;;;17.84;70.80
9774;BME280;4926;42.670;23.316;2023-09-30T03:42:23;94948.00;;;17.81;70.76
9774;BME280;4926;42.670;23.316;2023-09-30T03:44:50;94942.28;;;17.83;70.28
9774;BME280;4926;42.670;23.316;2023-09-30T03:47:19;94945.63;;;17.80;69.92
9774;BME280;4926;42.670;23.316;2023-09-30T03:49:49;94943.25;;;17.78;69.77
9774;BME280;4926;42.670;23.316;2023-09-30T03:52:16;94936.56;;;17.84;69.45
9774;BME280;4926;42.670;23.316;2023-09-30T03:54:51;94934.66;;;17.85;69.38
9774;BME280;4926;42.670;23.316;2023-09-30T03:57:20;94943.41;;;17.82;69.30
9774;BME280;4926;42.670;23.316;2023-09-30T03:59:47;94945.44;;;17.85;69.03
9774;BME280;4926;42.670;23.316;2023-09-30T04:02:14;94942.13;;;17.79;69.35
9774;BME280;4926;42.670;23.316;2023-09-30T04:04:41;94948.50;;;17.75;69.23
9774;BME280;4926;42.670;23.316;2023-09-30T04:07:08;94939.78;;;17.69;69.53
9774;BME280;4926;42.670;23.316;2023-09-30T04:09:44;94953.41;;;17.73;69.27
9774;BME280;4926;42.670;23.316;2023-09-30T04:12:11;94953.13;;;17.57;69.36
9774;BME280;4926;42.670;23.316;2023-09-30T04:14:40;94955.84;;;17.49;69.61
9774;BME280;4926;42.670;23.316;2023-09-30T04:17:13;94956.00;;;17.52;70.08
9774;BME280;4926;42.670;23.316;2023-09-30T04:19:41;94961.03;;;17.45;70.49
9774;BME280;4926;42.670;23.316;2023-09-30T04:22:11;94951.38;;;17.36;69.71
9774;BME280;4926;42.670;23.316;2023-09-30T04:24:38;94950.59;;;17.27;69.25
9774;BME280;4926;42.670;23.316;2023-09-30T04:27:05;94959.16;;;17.29;68.62
9774;BME280;4926;42.670;23.316;2023-09-30T04:29:33;94964.41;;;17.08;68.39
9774;BME280;4926;42.670;23.316;2023-09-30T04:32:06;94969.94;;;16.95;68.47
9774;BME280;4926;42.670;23.316;2023-09-30T04:34:33;94973.72;;;16.77;68.77
9774;BME280;4926;42.670;23.316;2023-09-30T04:37:00;94980.97;;;16.67;68.80
9774;BME280;4926;42.670;23.316;2023-09-30T04:39:27;94974.78;;;16.58;68.57
9774;BME280;4926;42.670;23.316;2023-09-30T04:41:54;94964.28;;;16.40;68.92
9774;BME280;4926;42.670;23.316;2023-09-30T04:44:21;94972.09;;;16.50;68.97
9774;BME280;4926;42.670;23.316;2023-09-30T04:46:51;94983.00;;;16.62;69.05
9774;BME280;4926;42.670;23.316;2023-09-30T04:49:22;94986.03;;;16.69;69.24
9774;BME280;4926;42.670;23.316;2023-09-30T04:51:49;94984.63;;;16.71;69.15
9774;BME280;4926;42.670;23.316;2023-09-30T04:54:16;94985.22;;;16.51;69.35
9774;BME280;4926;42.670;23.316;2023-09-30T04:56:53;94992.94;;;16.44;69.86
9774;BME280;4926;42.670;23.316;2023-09-30T04:59:19;94994.25;;;16.55;69.92
9774;BME280;4926;42.670;23.316;2023-09-30T05:01:50;94987.44;;;16.49;69.78
9774;BME280;4926;42.670;23.316;2023-09-30T05:04:18;94991.53;;;16.47;69.79
9774;BME280;4926;42.670;23.316;2023-09-30T05:06:45;94992.81;;;16.49;69.92
9774;BME280;4926;42.670;23.316;2023-09-30T05:09:14;94985.03;;;16.48;69.90
9774;BME280;4926;42.670;23.316;2023-09-30T05:11:41;94990.59;;;16.51;69.93
9774;BME280;4926;42.670;23.316;2023-09-30T05:14:10;95000.25;;;16.52;69.97
9774;BME280;4926;42.670;23.316;2023-09-30T05:16:38;95001.22;;;16.56;70.12
9774;BME280;4926;42.670;23.316;2023-09-30T05:19:06;95005.34;;;16.71;69.97
9774;BME280;4926;42.670;23.316;2023-09-30T05:21:34;95002.03;;;16.74;69.81
9774;BME280;4926;42.670;23.316;2023-09-30T05:24:01;95002.47;;;16.67;69.99
9774;BME280;4926;42.670;23.316;2023-09-30T05:26:28;95001.72;;;16.67;70.38
9774;BME280;4926;42.670;23.316;2023-09-30T05:28:55;94993.03;;;16.79;70.35
9774;BME280;4926;42.670;23.316;2023-09-30T05:31:22;95004.41;;;16.84;70.48
9774;BME280;4926;42.670;23.316;2023-09-30T05:33:49;94997.00;;;16.90;70.36
9774;BME280;4926;42.670;23.316;2023-09-30T05:36:18;95002.06;;;17.00;70.25
9774;BME280;4926;42.670;23.316;2023-09-30T05:38:47;95006.03;;;17.11;70.32
9774;BME280;4926;42.670;23.316;2023-09-30T05:41:14;95008.56;;;17.16;69.92
9774;BME280;4926;42.670;23.316;2023-09-30T05:43:43;95012.03;;;17.16;70.02
9774;BME280;4926;42.670;23.316;2023-09-30T05:46:14;95009.34;;;17.08;69.61
9774;BME280;4926;42.670;23.316;2023-09-30T05:48:42;95014.38;;;17.01;69.52
9774;BME280;4926;42.670;23.316;2023-09-30T05:51:11;95015.66;;;17.03;69.44
9774;BME280;4926;42.670;23.316;2023-09-30T05:53:40;95003.03;;;17.04;69.38
9774;BME280;4926;42.670;23.316;2023-09-30T05:56:08;95020.72;;;17.22;69.15
9774;BME280;4926;42.670;23.316;2023-09-30T06:01:44;95022.47;;;17.43;68.42
9774;BME280;4926;42.670;23.316;2023-09-30T06:04:11;95020.13;;;17.59;68.04
9774;BME280;4926;42.670;23.316;2023-09-30T06:06:38;95020.09;;;17.76;68.12
9774;BME280;4926;42.670;23.316;2023-09-30T06:09:06;95016.56;;;17.93;67.26
9774;BME280;4926;42.670;23.316;2023-09-30T06:11:36;95024.09;;;18.16;66.96
9774;BME280;4926;42.670;23.316;2023-09-30T06:14:06;95025.44;;;18.39;66.17
9774;BME280;4926;42.670;23.316;2023-09-30T06:16:33;95018.38;;;18.64;65.26
9774;BME280;4926;42.670;23.316;2023-09-30T06:19:02;95028.56;;;18.87;64.53
9774;BME280;4926;42.670;23.316;2023-09-30T06:21:29;95025.06;;;19.08;63.29
9774;BME280;4926;42.670;23.316;2023-09-30T06:24:00;95024.19;;;19.24;62.49
9774;BME280;4926;42.670;23.316;2023-09-30T06:26:27;95021.50;;;19.45;61.64
9774;BME280;4926;42.670;23.316;2023-09-30T06:28:58;95025.41;;;19.68;60.87
9774;BME280;4926;42.670;23.316;2023-09-30T06:31:27;95021.66;;;19.93;60.22
9774;BME280;4926;42.670;23.316;2023-09-30T06:33:54;95014.09;;;20.19;58.98
9774;BME280;4926;42.670;23.316;2023-09-30T06:36:25;95017.28;;;20.45;58.55
9774;BME280;4926;42.670;23.316;2023-09-30T06:38:51;95012.66;;;20.70;57.64
9774;BME280;4926;42.670;23.316;2023-09-30T06:41:18;95009.59;;;20.95;56.01
9774;BME280;4926;42.670;23.316;2023-09-30T06:43:45;95001.94;;;21.10;55.36
9774;BME280;4926;42.670;23.316;2023-09-30T06:46:14;95007.50;;;21.41;54.80
9774;BME280;4926;42.670;23.316;2023-09-30T06:48:42;94999.88;;;21.58;53.80
9774;BME280;4926;42.670;23.316;2023-09-30T06:51:15;94998.31;;;21.85;53.35
9774;BME280;4926;42.670;23.316;2023-09-30T06:53:46;94992.94;;;22.16;52.35
9774;BME280;4926;42.670;23.316;2023-09-30T06:56:16;94986.19;;;22.41;51.09
9774;BME280;4926;42.670;23.316;2023-09-30T06:58:43;94990.94;;;22.75;49.88
9774;BME280;4926;42.670;23.316;2023-09-30T07:01:15;94991.16;;;23.01;49.43
9774;BME280;4926;42.670;23.316;2023-09-30T07:03:42;94987.75;;;23.23;48.47
9774;BME280;4926;42.670;23.316;2023-09-30T07:06:10;94992.81;;;23.41;48.03
9774;BME280;4926;42.670;23.316;2023-09-30T07:08:37;94985.50;;;23.64;47.03
9774;BME280;4926;42.670;23.316;2023-09-30T07:11:08;94979.94;;;23.57;46.38
9774;BME280;4926;42.670;23.316;2023-09-30T07:13:36;94983.50;;;23.61;46.81
9774;BME280;4926;42.670;23.316;2023-09-30T07:16:03;94974.28;;;23.84;46.51
9774;BME280;4926;42.670;23.316;2023-09-30T07:18:33;94979.06;;;24.10;45.92
9774;BME280;4926;42.670;23.316;2023-09-30T07:21:00;94967.50;;;24.39;45.38
9774;BME280;4926;42.670;23.316;2023-09-30T07:23:29;94964.25;;;24.75;44.68
9774;BME280;4926;42.670;23.316;2023-09-30T07:25:57;94952.91;;;24.99;43.99
9774;BME280;4926;42.670;23.316;2023-09-30T07:28:26;94957.81;;;24.64;43.03
9774;BME280;4926;42.670;23.316;2023-09-30T07:30:52;94965.03;;;24.30;43.89
9774;BME280;4926;42.670;23.316;2023-09-30T07:33:22;94961.00;;;24.21;44.04
9774;BME280;4926;42.670;23.316;2023-09-30T07:35:50;94966.97;;;24.53;44.31
9774;BME280;4926;42.670;23.316;2023-09-30T07:38:17;94966.84;;;24.94;43.68
9774;BME280;4926;42.670;23.316;2023-09-30T07:40:44;94961.47;;;25.27;41.90
9774;BME280;4926;42.670;23.316;2023-09-30T07:43:14;94947.63;;;25.40;42.10
9774;BME280;4926;42.670;23.316;2023-09-30T07:45:44;94955.56;;;25.85;41.88
9774;BME280;4926;42.670;23.316;2023-09-30T07:48:14;94941.97;;;26.25;40.92
9774;BME280;4926;42.670;23.316;2023-09-30T07:50:41;94941.53;;;26.67;40.20
9774;BME280;4926;42.670;23.316;2023-09-30T07:53:08;94937.94;;;27.06;39.63
9774;BME280;4926;42.670;23.316;2023-09-30T07:55:35;94922.50;;;27.42;38.58
9774;BME280;4926;42.670;23.316;2023-09-30T07:58:02;94928.88;;;27.71;37.89
9774;BME280;4926;42.670;23.316;2023-09-30T08:00:28;94932.09;;;27.94;37.82
9774;BME280;4926;42.670;23.316;2023-09-30T08:03:01;94923.56;;;28.34;37.01
9774;BME280;4926;42.670;23.316;2023-09-30T08:05:27;94914.19;;;28.56;36.10
9774;BME280;4926;42.670;23.316;2023-09-30T08:07:54;94913.41;;;28.59;36.48
9774;BME280;4926;42.670;23.316;2023-09-30T08:10:21;94904.75;;;28.78;35.48
9774;BME280;4926;42.670;23.316;2023-09-30T08:12:48;94912.56;;;29.11;35.18
9774;BME280;4926;42.670;23.316;2023-09-30T08:15:15;94900.75;;;29.35;34.64
9774;BME280;4926;42.670;23.316;2023-09-30T08:17:42;94892.84;;;29.44;34.58
9774;BME280;4926;42.670;23.316;2023-09-30T08:20:11;94903.81;;;29.51;34.56
9774;BME280;4926;42.670;23.316;2023-09-30T08:22:39;94895.28;;;29.35;34.17
9774;BME280;4926;42.670;23.316;2023-09-30T08:25:07;94899.09;;;29.55;33.96
9774;BME280;4926;42.670;23.316;2023-09-30T08:27:36;94892.13;;;29.37;33.24
9774;BME280;4926;42.670;23.316;2023-09-30T08:30:04;94897.69;;;29.12;33.74
9774;BME280;4926;42.670;23.316;2023-09-30T08:32:32;94903.94;;;29.27;33.79
9774;BME280;4926;42.670;23.316;2023-09-30T08:34:59;94898.44;;;29.30;33.24
9774;BME280;4926;42.670;23.316;2023-09-30T08:37:27;94893.75;;;29.13;33.52
9774;BME280;4926;42.670;23.316;2023-09-30T08:39:55;94895.53;;;29.58;33.13
9774;BME280;4926;42.670;23.316;2023-09-30T08:42:22;94892.13;;;29.40;33.62
9774;BME280;4926;42.670;23.316;2023-09-30T08:44:51;94893.22;;;29.53;33.12
9774;BME280;4926;42.670;23.316;2023-09-30T08:47:20;94888.13;;;29.52;32.88
9774;BME280;4926;42.670;23.316;2023-09-30T08:49:59;94882.97;;;29.64;32.98
9774;BME280;4926;42.670;23.316;2023-09-30T08:52:33;94883.31;;;29.81;32.65
9774;BME280;4926;42.670;23.316;2023-09-30T08:54:59;94877.69;;;30.02;32.28
9774;BME280;4926;42.670;23.316;2023-09-30T08:57:29;94868.91;;;30.28;31.75
9774;BME280;4926;42.670;23.316;2023-09-30T08:59:57;94860.09;;;29.92;31.10
9774;BME280;4926;42.670;23.316;2023-09-30T09:02:25;94869.56;;;29.88;31.78
9774;BME280;4926;42.670;23.316;2023-09-30T09:04:52;94863.41;;;30.28;31.65
9774;BME280;4926;42.670;23.316;2023-09-30T09:07:19;94861.91;;;30.13;31.09
9774;BME280;4926;42.670;23.316;2023-09-30T09:10:05;94853.16;;;30.76;30.60
9774;BME280;4926;42.670;23.316;2023-09-30T09:12:33;94851.41;;;30.96;30.48
9774;BME280;4926;42.670;23.316;2023-09-30T09:15:05;94849.31;;;31.07;30.13
9774;BME280;4926;42.670;23.316;2023-09-30T09:17:40;94837.88;;;30.72;29.90
9774;BME280;4926;42.670;23.316;2023-09-30T09:20:09;94840.66;;;31.09;29.52
9774;BME280;4926;42.670;23.316;2023-09-30T09:22:40;94835.63;;;31.00;29.21
9774;BME280;4926;42.670;23.316;2023-09-30T09:25:10;94832.88;;;31.37;29.05
9774;BME280;4926;42.670;23.316;2023-09-30T09:27:37;94834.16;;;31.86;28.96
9774;BME280;4926;42.670;23.316;2023-09-30T09:33:41;94834.97;;;31.26;28.94
9774;BME280;4926;42.670;23.316;2023-09-30T09:36:08;94829.38;;;31.63;28.94
9774;BME280;4926;42.670;23.316;2023-09-30T09:38:43;94819.22;;;31.87;28.77
9774;BME280;4926;42.670;23.316;2023-09-30T09:41:10;94819.00;;;31.44;28.61
9774;BME280;4926;42.670;23.316;2023-09-30T09:43:37;94817.25;;;31.27;28.77
9774;BME280;4926;42.670;23.316;2023-09-30T09:46:07;94820.38;;;31.29;29.22
9774;BME280;4926;42.670;23.316;2023-09-30T09:48:35;94813.50;;;31.44;28.94
9774;BME280;4926;42.670;23.316;2023-09-30T09:51:05;94814.28;;;30.74;28.62
9774;BME280;4926;42.670;23.316;2023-09-30T09:53:35;94809.38;;;30.96;29.00
9774;BME280;4926;42.670;23.316;2023-09-30T09:56:03;94816.13;;;31.21;28.44
9774;BME280;4926;42.670;23.316;2023-09-30T10:01:18;94805.69;;;30.31;29.27
9774;BME280;4926;42.670;23.316;2023-09-30T10:03:47;94802.63;;;30.63;29.05
9774;BME280;4926;42.670;23.316;2023-09-30T10:06:15;94803.75;;;31.06;28.66
9774;BME280;4926;42.670;23.316;2023-09-30T10:08:45;94797.06;;;30.70;28.65
9774;BME280;4926;42.670;23.316;2023-09-30T10:11:17;94789.25;;;30.65;28.71
9774;BME280;4926;42.670;23.316;2023-09-30T10:13:50;94797.03;;;30.74;28.87
9774;BME280;4926;42.670;23.316;2023-09-30T10:16:46;94794.59;;;30.83;28.50
9774;BME280;4926;42.670;23.316;2023-09-30T10:19:18;94789.34;;;30.58;28.88
9774;BME280;4926;42.670;23.316;2023-09-30T10:22:24;94791.00;;;29.97;28.87
9774;BME280;4926;42.670;23.316;2023-09-30T10:24:56;94783.03;;;29.58;29.23
9774;BME280;4926;42.670;23.316;2023-09-30T10:27:29;94781.31;;;29.86;29.25
9774;BME280;4926;42.670;23.316;2023-09-30T10:29:58;94780.81;;;29.98;29.65
9774;BME280;4926;42.670;23.316;2023-09-30T10:35:43;94769.22;;;29.73;28.70
9774;BME280;4926;42.670;23.316;2023-09-30T10:38:39;94773.41;;;29.29;29.15
9774;BME280;4926;42.670;23.316;2023-09-30T10:41:10;94758.97;;;29.18;28.86
9774;BME280;4926;42.670;23.316;2023-09-30T10:43:39;94773.88;;;29.07;29.15
9774;BME280;4926;42.670;23.316;2023-09-30T10:46:31;94759.66;;;29.36;28.72
9774;BME280;4926;42.670;23.316;2023-09-30T10:49:17;94748.50;;;29.64;28.38
9774;BME280;4926;42.670;23.316;2023-09-30T10:51:52;94747.59;;;29.82;27.68
9774;BME280;4926;42.670;23.316;2023-09-30T10:54:24;94757.16;;;29.59;28.81
9774;BME280;4926;42.670;23.316;2023-09-30T10:56:51;94750.03;;;29.69;28.14
9774;BME280;4926;42.670;23.316;2023-09-30T10:59:18;94741.69;;;29.87;27.99
9774;BME280;4926;42.670;23.316;2023-09-30T11:01:49;94746.06;;;29.81;27.89
9774;BME280;4926;42.670;23.316;2023-09-30T11:04:17;94740.38;;;30.02;28.07
9774;BME280;4926;42.670;23.316;2023-09-30T11:06:48;94740.25;;;30.16;27.63
9774;BME280;4926;42.670;23.316;2023-09-30T11:09:21;94740.00;;;30.44;27.62
9774;BME280;4926;42.670;23.316;2023-09-30T11:11:50;94739.44;;;30.19;27.65
9774;BME280;4926;42.670;23.316;2023-09-30T11:14:20;94739.72;;;29.87;27.46
9774;BME280;4926;42.670;23.316;2023-09-30T11:16:47;94730.63;;;29.94;27.36
9774;BME280;4926;42.670;23.316;2023-09-30T11:19:14;94735.03;;;29.88;27.46
9774;BME280;4926;42.670;23.316;2023-09-30T11:21:42;94737.66;;;29.43;28.18
9774;BME280;4926;42.670;23.316;2023-09-30T11:24:10;94735.47;;;29.17;28.61
9774;BME280;4926;42.670;23.316;2023-09-30T11:26:38;94741.16;;;28.61;28.87
9774;BME280;4926;42.670;23.316;2023-09-30T11:29:08;94735.66;;;28.75;28.69
9774;BME280;4926;42.670;23.316;2023-09-30T11:31:37;94729.88;;;29.38;28.37
9774;BME280;4926;42.670;23.316;2023-09-30T11:34:04;94729.94;;;29.24;28.75
9774;BME280;4926;42.670;23.316;2023-09-30T11:36:34;94717.81;;;29.22;28.75
9774;BME280;4926;42.670;23.316;2023-09-30T11:39:01;94723.69;;;29.20;29.05
9774;BME280;4926;42.670;23.316;2023-09-30T11:41:39;94727.97;;;29.28;29.00
9774;BME280;4926;42.670;23.316;2023-09-30T11:44:09;94727.72;;;28.98;28.93
9774;BME280;4926;42.670;23.316;2023-09-30T11:46:47;94730.94;;;28.79;29.08
9774;BME280;4926;42.670;23.316;2023-09-30T11:49:28;94721.16;;;28.71;29.18
9774;BME280;4926;42.670;23.316;2023-09-30T11:51:56;94720.59;;;29.11;29.05
9774;BME280;4926;42.670;23.316;2023-09-30T11:54:29;94713.34;;;29.45;28.62
9774;BME280;4926;42.670;23.316;2023-09-30T11:56:58;94709.56;;;29.25;28.72
9774;BME280;4926;42.670;23.316;2023-09-30T11:59:36;94708.09;;;29.10;28.92
9774;BME280;4926;42.670;23.316;2023-09-30T12:02:03;94709.25;;;29.16;29.22
9774;BME280;4926;42.670;23.316;2023-09-30T12:04:31;94705.81;;;28.95;29.01
9774;BME280;4926;42.670;23.316;2023-09-30T12:06:58;94706.91;;;29.11;29.21
9774;BME280;4926;42.670;23.316;2023-09-30T12:09:25;94702.78;;;28.68;29.47
9774;BME280;4926;42.670;23.316;2023-09-30T12:11:53;94704.38;;;28.69;30.15
9774;BME280;4926;42.670;23.316;2023-09-30T12:14:20;94702.00;;;28.64;30.22
9774;BME280;4926;42.670;23.316;2023-09-30T12:16:48;94700.53;;;28.35;30.17
9774;BME280;4926;42.670;23.316;2023-09-30T12:19:16;94703.69;;;28.23;30.25
9774;BME280;4926;42.670;23.316;2023-09-30T12:21:43;94697.03;;;28.13;30.16
9774;BME280;4926;42.670;23.316;2023-09-30T12:24:12;94692.75;;;28.23;30.19
9774;BME280;4926;42.670;23.316;2023-09-30T12:26:42;94691.22;;;27.80;30.32
9774;BME280;4926;42.670;23.316;2023-09-30T12:29:11;94688.47;;;28.18;30.00
9774;BME280;4926;42.670;23.316;2023-09-30T12:31:37;94686.13;;;28.06;30.39
9774;BME280;4926;42.670;23.316;2023-09-30T12:34:06;94681.84;;;27.74;30.62
9774;BME280;4926;42.670;23.316;2023-09-30T12:36:33;94686.91;;;27.72;30.27
9774;BME280;4926;42.670;23.316;2023-09-30T12:39:00;94691.63;;;27.71;30.53
9774;BME280;4926;42.670;23.316;2023-09-30T12:41:29;94688.13;;;27.92;29.87
9774;BME280;4926;42.670;23.316;2023-09-30T12:43:58;94687.28;;;28.09;30.21
9774;BME280;4926;42.670;23.316;2023-09-30T12:46:24;94672.63;;;28.68;29.17
9774;BME280;4926;42.670;23.316;2023-09-30T12:48:51;94670.53;;;29.00;28.70
9774;BME280;4926;42.670;23.316;2023-09-30T12:51:24;94667.34;;;29.12;29.22
9774;BME280;4926;42.670;23.316;2023-09-30T12:53:51;94675.97;;;29.07;28.98
9774;BME280;4926;42.670;23.316;2023-09-30T12:56:18;94669.81;;;28.86;29.11
9774;BME280;4926;42.670;23.316;2023-09-30T12:58:44;94654.63;;;28.74;28.75
9774;BME280;4926;42.670;23.316;2023-09-30T13:01:11;94665.97;;;28.76;28.92
9774;BME280;4926;42.670;23.316;2023-09-30T13:03:38;94659.66;;;28.83;29.11
9774;BME280;4926;42.670;23.316;2023-09-30T13:06:05;94660.78;;;28.89;29.38
9774;BME280;4926;42.670;23.316;2023-09-30T13:08:34;94662.38;;;28.86;29.37
9774;BME280;4926;42.670;23.316;2023-09-30T13:11:01;94650.03;;;29.22;29.09
9774;BME280;4926;42.670;23.316;2023-09-30T13:13:32;94649.16;;;29.32;29.20
9774;BME280;4926;42.670;23.316;2023-09-30T13:16:00;94647.59;;;29.35;29.00
9774;BME280;4926;42.670;23.316;2023-09-30T13:18:27;94652.88;;;29.59;28.79
9774;BME280;4926;42.670;23.316;2023-09-30T13:20:54;94648.06;;;29.26;28.89
9774;BME280;4926;42.670;23.316;2023-09-30T13:23:22;94642.13;;;29.31;28.84
9774;BME280;4926;42.670;23.316;2023-09-30T13:25:51;94643.69;;;29.32;29.21
9774;BME280;4926;42.670;23.316;2023-09-30T13:28:18;94642.22;;;29.17;29.55
9774;BME280;4926;42.670;23.316;2023-09-30T13:30:44;94647.75;;;29.07;29.82
9774;BME280;4926;42.670;23.316;2023-09-30T13:33:13;94651.25;;;28.31;30.52